You are listening to:
KLOU ATIS - Louisville, Kentucky, United States

KLOU 231153Z 17008KT 10SM CLR 08/02 A3008 RMK AO2 SLP185 T00830017 10094 20067 55002 $

If stream doesn't start automatically press the play button
If stream stops then reload player then press play